Redlake, Minnesota
Current Conditions -  °F | °C
As of 9:52 AM on Sunday 23 Nov 2014 (Local Time) from KBJI Reporting Station
Haze Haze  
Wind Chill: 33°   Ceiling: 9000
Heat Index: 33°   Visibility: 3mi
Dew Point: 33°   Wind: 0mph
Humidity: 99%   Direction: NA
Pressure: 29.4"   Gusts: NA
Location:  47.88°N, 95.02°W
Report Text: KBJI 231552Z AUTO 00000KT 3SM BR OVC090 01/01 A2940 RMK AO2 T00070005
Loading
Personal Weather Stations






























Interactive Weather Map New forecast layout! Learn more

10-Day Weather Forecast

Advertisements
Track Severe Weather on mobile